Time;durP1;ratioP1;P1;durP2;ratioP2;P2;SDS_P1;SDS_P2;PMS_P1;PMS_P2;Temp;Humidity;BMP_temperature;BMP_pressure;BME280_temperature;BME280_humidity;BME280_pressure;Samples;Min_cycle;Max_cycle;Signal;HPM_P1;HPM_P2
2021/12/26 00:01:48;;;;;;;7.87;2.00;;;;;;;13.53;100.00;101156.19;6129557;23;20397;-90
2021/12/26 00:04:16;;;;;;;12.60;2.60;;;;;;;13.57;100.00;101165.72;6155260;23;20456;-88
2021/12/26 00:06:44;;;;;;;12.47;3.23;;;;;;;13.55;100.00;101156.84;6130656;23;20888;-89
2021/12/26 00:09:12;;;;;;;12.87;3.77;;;;;;;13.58;100.00;101156.44;6130444;23;20413;-88
2021/12/26 00:11:40;;;;;;;15.43;4.93;;;;;;;13.56;100.00;101147.53;6130067;23;20468;-88
2021/12/26 00:14:10;;;;;;;11.27;4.20;;;;;;;13.58;100.00;101150.94;6130735;23;20400;-88
2021/12/26 00:16:38;;;;;;;14.23;3.57;;;;;;;13.58;100.00;101150.94;6130008;23;20401;-88
2021/12/26 00:19:06;;;;;;;20.90;3.57;;;;;;;13.54;100.00;101144.16;6130337;23;20460;-89
2021/12/26 00:21:34;;;;;;;17.00;2.43;;;;;;;13.57;100.00;101160.22;6091715;23;20438;-88
2021/12/26 00:24:02;;;;;;;9.93;3.33;;;;;;;13.55;100.00;101159.59;6100876;23;20395;-88
2021/12/26 00:26:32;;;;;;;12.87;4.03;;;;;;;13.52;100.00;101162.72;6076908;23;20457;-88
2021/12/26 00:29:00;;;;;;;17.37;3.53;;;;;;;13.51;100.00;101172.00;6100767;23;20414;-89
2021/12/26 00:31:28;;;;;;;10.00;3.70;;;;;;;13.48;100.00;101166.91;6077151;23;20414;-89
2021/12/26 00:33:56;;;;;;;12.30;4.87;;;;;;;13.48;100.00;101178.75;6077832;23;20477;-88
2021/12/26 00:36:24;;;;;;;11.40;3.87;;;;;;;13.48;100.00;101169.66;6077918;23;20406;-87
2021/12/26 00:38:52;;;;;;;7.53;3.20;;;;;;;13.46;100.00;101164.41;6077149;23;20438;-89
2021/12/26 00:41:21;;;;;;;11.53;2.90;;;;;;;13.53;100.00;101169.91;6076812;23;20402;-88
2021/12/26 00:43:49;;;;;;;6.67;2.30;;;;;;;13.54;100.00;101165.28;6124327;23;20402;-87
2021/12/26 00:46:16;;;;;;;13.83;3.60;;;;;;;13.56;100.00;101163.19;6100470;23;20463;-88
2021/12/26 00:48:44;;;;;;;9.00;3.20;;;;;;;13.56;100.00;101161.28;6077327;23;20414;-89
2021/12/26 00:51:12;;;;;;;18.33;2.97;;;;;;;13.54;100.00;101146.91;6077221;23;20449;-89
2021/12/26 00:53:40;;;;;;;20.20;3.30;;;;;;;13.56;100.00;101150.28;6077024;23;20410;-88
2021/12/26 00:56:08;;;;;;;8.97;2.60;;;;;;;13.49;100.00;101146.66;6100961;23;20398;-89
2021/12/26 00:58:46;;;;;;;12.43;3.10;;;;;;;13.52;100.00;101143.50;6123486;23;20432;-89
2021/12/26 01:01:15;;;;;;;8.10;3.97;;;;;;;13.52;100.00;101151.75;6100929;23;20499;-89
2021/12/26 01:03:43;;;;;;;14.10;3.77;;;;;;;13.57;100.00;101151.13;6077242;23;20430;-88
2021/12/26 01:06:11;;;;;;;10.33;5.03;;;;;;;13.55;100.00;101145.00;6100148;23;20402;-88
2021/12/26 01:08:42;;;;;;;14.00;4.60;;;;;;;13.55;100.00;101143.09;6076391;23;20491;-89
2021/12/26 01:11:19;;;;;;;17.63;5.07;;;;;;;13.54;100.00;101144.16;6077174;23;20433;-87
2021/12/26 01:13:48;;;;;;;9.80;4.13;;;;;;;13.58;100.00;101150.94;6079548;23;20931;-89
2021/12/26 01:16:16;;;;;;;11.73;3.77;;;;;;;13.54;100.00;101141.41;6103581;23;20703;-89
2021/12/26 01:18:47;;;;;;;12.17;4.03;;;;;;;13.56;100.00;101153.03;6102431;23;20746;-89
2021/12/26 01:21:25;;;;;;;11.37;4.37;;;;;;;13.60;100.00;101165.31;6088454;23;20484;-89
2021/12/26 01:23:55;;;;;;;13.27;5.10;;;;;;;13.57;100.00;101159.38;6088765;23;20714;-88
2021/12/26 01:26:24;;;;;;;12.60;5.00;;;;;;;13.61;100.00;101155.19;6108860;23;20869;-88
2021/12/26 01:28:52;;;;;;;8.40;4.13;;;;;;;13.64;100.00;101172.09;6108403;23;20394;-89
2021/12/26 01:31:20;;;;;;;13.20;4.07;;;;;;;13.65;100.00;101161.97;6083726;23;20404;-90
2021/12/26 01:33:59;;;;;;;12.77;4.00;;;;;;;13.61;100.00;101145.03;6108039;23;20946;-89
2021/12/26 01:36:31;;;;;;;14.33;4.20;;;;;;;13.68;100.00;101154.16;6132659;23;20401;-89
2021/12/26 01:39:02;;;;;;;13.60;4.30;;;;;;;13.70;100.00;101160.28;6107915;23;20990;-88
2021/12/26 01:41:29;;;;;;;11.37;3.17;;;;;;;13.72;100.00;101163.69;6131570;23;20814;-89
2021/12/26 01:44:03;;;;;;;13.47;3.23;;;;;;;13.72;100.00;101158.19;6107638;23;20401;-89
2021/12/26 01:46:32;;;;;;;14.13;3.50;;;;;;;13.70;100.00;101165.78;6110956;23;20892;-89
2021/12/26 01:49:03;;;;;;;9.60;2.77;;;;;;;13.66;100.00;101155.44;6084352;23;20385;-90
2021/12/26 01:51:31;;;;;;;9.13;2.80;;;;;;;13.66;100.00;101153.50;6108173;23;20712;-89
2021/12/26 01:54:05;;;;;;;10.53;2.87;;;;;;;13.67;100.00;101155.19;6107501;23;20401;-89
2021/12/26 01:56:33;;;;;;;9.47;3.10;;;;;;;13.69;100.00;101158.59;6110282;23;20923;-89
2021/12/26 01:59:01;;;;;;;9.47;3.30;;;;;;;13.69;100.00;101150.34;6130964;23;20401;-88
2021/12/26 02:01:29;;;;;;;9.40;3.00;;;;;;;13.69;100.00;101153.09;6107302;23;20433;-88
2021/12/26 02:03:58;;;;;;;11.80;3.07;;;;;;;13.71;100.00;101150.16;6083462;23;20899;-87
2021/12/26 02:06:26;;;;;;;6.73;2.97;;;;;;;13.66;100.00;101148.00;6155763;23;20405;-88
2021/12/26 02:08:56;;;;;;;9.80;2.87;;;;;;;13.69;100.00;101157.75;6108426;23;20730;-87
2021/12/26 02:11:24;;;;;;;9.00;2.90;;;;;;;13.68;100.00;101167.88;6107071;23;20452;-87
2021/12/26 02:13:52;;;;;;;17.77;3.93;;;;;;;13.69;100.00;101174.22;6107307;23;20402;-88
2021/12/26 02:16:20;;;;;;;12.47;3.20;;;;;;;13.67;100.00;101171.69;6107215;23;20409;-88
2021/12/26 02:18:47;;;;;;;10.27;3.60;;;;;;;13.71;100.00;101169.38;6106676;23;20409;-88
2021/12/26 02:24:17;;;;;;;10.90;3.07;;;;;;;13.68;100.00;101167.88;6136126;23;20402;-88
2021/12/26 02:29:32;;;;;;;13.07;3.90;;;;;;;13.68;100.00;101178.88;6115270;23;20425;-88
2021/12/26 02:32:02;;;;;;;11.57;2.90;;;;;;;13.70;100.00;101182.25;6107317;23;20402;-88
2021/12/26 02:34:30;;;;;;;9.37;2.87;;;;;;;13.70;100.00;101189.66;6156761;23;20916;-88
2021/12/26 02:36:58;;;;;;;22.07;3.80;;;;;;;13.65;100.00;101178.44;6083849;23;20405;-87
2021/12/26 02:39:26;;;;;;;8.17;3.00;;;;;;;13.67;100.00;101185.41;6106275;23;20944;-89
2021/12/26 02:41:54;;;;;;;8.30;2.50;;;;;;;13.62;100.00;101174.22;6107157;23;20402;-88
2021/12/26 02:44:22;;;;;;;15.20;3.17;;;;;;;13.66;100.00;101186.47;6106521;23;20538;-88
2021/12/26 02:46:51;;;;;;;10.73;3.27;;;;;;;13.60;100.00;101179.06;6082846;23;20802;-88
2021/12/26 02:49:25;;;;;;;9.27;3.33;;;;;;;13.64;100.00;101185.84;6106261;23;20416;-88
2021/12/26 02:51:54;;;;;;;10.83;3.47;;;;;;;13.60;100.00;101187.28;6107424;23;20724;-88
2021/12/26 02:54:26;;;;;;;10.47;3.47;;;;;;;13.51;100.00;101184.91;6107177;23;20476;-88
2021/12/26 02:56:54;;;;;;;5.10;2.80;;;;;;;13.56;100.00;101202.47;6084552;23;20402;-88
2021/12/26 02:59:24;;;;;;;5.67;2.17;;;;;;;13.51;100.00;101210.47;6107161;23;20437;-87
2021/12/26 03:01:52;;;;;;;10.70;2.70;;;;;;;13.47;100.00;101220.16;6156532;23;20464;-88
2021/12/26 03:04:22;;;;;;;5.60;2.23;;;;;;;13.43;100.00;101225.22;6107551;23;20402;-88
2021/12/26 03:07:02;;;;;;;7.07;2.30;;;;;;;13.42;100.00;101218.03;6131429;23;20409;-88
2021/12/26 03:09:33;;;;;;;18.50;3.87;;;;;;;13.37;100.00;101214.19;6111048;23;20480;-88
2021/12/26 03:12:01;;;;;;;11.93;2.77;;;;;;;13.40;100.00;101211.88;6107956;23;20401;-89
2021/12/26 03:14:29;;;;;;;15.30;2.90;;;;;;;13.40;100.00;101203.66;6081892;23;20791;-89
2021/12/26 03:16:57;;;;;;;16.83;2.43;;;;;;;13.46;100.00;101211.09;6106367;23;20907;-88
2021/12/26 03:19:25;;;;;;;12.43;3.00;;;;;;;13.51;100.00;101212.34;6082338;23;20416;-88
2021/12/26 03:21:55;;;;;;;9.70;3.00;;;;;;;13.51;100.00;101199.47;6125286;23;20505;-88
2021/12/26 03:24:23;;;;;;;5.80;2.50;;;;;;;13.49;100.00;101201.56;6101664;23;20407;-88
2021/12/26 03:26:58;;;;;;;9.93;2.90;;;;;;;13.47;100.00;101204.50;6101902;23;20866;-88
2021/12/26 03:29:33;;;;;;;4.77;2.27;;;;;;;13.49;100.00;101190.59;6102307;23;20752;-88
2021/12/26 03:32:01;;;;;;;13.53;2.83;;;;;;;13.47;100.00;101203.66;6101429;23;20411;-88
2021/12/26 03:34:29;;;;;;;13.87;3.07;;;;;;;13.45;100.00;101201.16;6100332;23;20465;-88
2021/12/26 03:36:56;;;;;;;7.70;2.20;;;;;;;13.48;100.00;101210.84;6125330;23;20402;-88
2021/12/26 03:39:25;;;;;;;14.60;3.00;;;;;;;13.44;100.00;101209.59;6077580;23;20461;-88
2021/12/26 03:41:53;;;;;;;7.43;2.67;;;;;;;13.48;100.00;101216.34;6101161;23;20465;-88
2021/12/26 03:44:22;;;;;;;12.63;2.87;;;;;;;13.50;100.00;101219.75;6100813;23;20403;-88
2021/12/26 03:46:51;;;;;;;8.07;2.70;;;;;;;13.44;100.00;101204.09;6077653;23;20746;-89
2021/12/26 03:49:19;;;;;;;11.40;2.50;;;;;;;13.51;100.00;101215.94;6100538;23;20403;-88
2021/12/26 03:51:47;;;;;;;15.17;2.77;;;;;;;13.46;100.00;101197.34;6077717;23;20441;-89
2021/12/26 03:54:15;;;;;;;12.77;2.47;;;;;;;13.53;100.00;101211.13;6077449;23;20889;-88
2021/12/26 03:56:46;;;;;;;15.83;3.73;;;;;;;13.50;100.00;101197.78;6101341;23;20402;-88
2021/12/26 03:59:14;;;;;;;9.73;3.07;;;;;;;13.54;100.00;101193.59;6125782;23;20445;-88
2021/12/26 04:01:41;;;;;;;13.37;3.60;;;;;;;13.53;100.00;101189.13;6101150;23;20833;-88
2021/12/26 04:04:09;;;;;;;12.47;3.10;;;;;;;13.53;100.00;101189.13;6102084;23;20729;-89
2021/12/26 04:06:39;;;;;;;19.80;3.40;;;;;;;13.58;100.00;101192.13;6077668;23;20486;-90
2021/12/26 04:09:08;;;;;;;16.83;3.50;;;;;;;13.60;100.00;101179.06;6100467;23;20917;-89
2021/12/26 04:11:38;;;;;;;23.87;5.43;;;;;;;13.52;100.00;101165.47;6101186;23;20411;-89
2021/12/26 04:14:08;;;;;;;9.83;2.70;;;;;;;13.56;100.00;101164.03;6102654;23;20409;-89
2021/12/26 04:16:36;;;;;;;9.33;2.93;;;;;;;13.54;100.00;101160.63;6101605;23;20884;-89
2021/12/26 04:19:05;;;;;;;20.40;3.10;;;;;;;13.50;100.00;101153.84;6100763;23;20411;-89
2021/12/26 04:21:33;;;;;;;8.43;2.30;;;;;;;13.49;100.00;101161.22;6085089;23;20987;-89
2021/12/26 04:24:04;;;;;;;12.50;2.10;;;;;;;13.46;100.00;101164.41;6078141;23;20402;-88
2021/12/26 04:26:32;;;;;;;8.23;2.30;;;;;;;13.46;100.00;101160.81;6077059;23;20738;-89
2021/12/26 04:29:00;;;;;;;15.93;2.80;;;;;;;13.41;100.00;101157.81;6077005;23;20410;-88
2021/12/26 04:31:28;;;;;;;14.27;3.27;;;;;;;13.42;100.00;101167.75;6077097;23;20421;-89
2021/12/26 04:33:56;;;;;;;7.50;2.30;;;;;;;13.45;100.00;101173.69;6124508;23;20410;-88
2021/12/26 04:36:24;;;;;;;9.57;2.57;;;;;;;13.45;100.00;101178.34;6100458;23;20402;-88
2021/12/26 04:38:54;;;;;;;13.60;2.80;;;;;;;13.42;100.00;101179.59;6054332;23;20797;-88
2021/12/26 04:41:22;;;;;;;11.03;2.70;;;;;;;13.42;100.00;101173.25;6076256;23;20450;-88
2021/12/26 04:43:50;;;;;;;9.90;2.83;;;;;;;13.42;100.00;101181.47;6100093;23;20409;-89
2021/12/26 04:46:18;;;;;;;11.83;2.90;;;;;;;13.48;100.00;101183.41;6076526;23;20936;-88
2021/12/26 04:48:46;;;;;;;14.17;3.03;;;;;;;13.47;100.00;101176.22;6053680;23;20394;-88
2021/12/26 04:51:15;;;;;;;9.90;2.83;;;;;;;13.38;100.00;101161.81;6076873;23;20399;-88
2021/12/26 04:53:44;;;;;;;8.10;2.43;;;;;;;13.48;100.00;101181.50;6077233;23;20403;-88
2021/12/26 04:56:12;;;;;;;11.60;3.50;;;;;;;13.38;100.00;101160.97;6101422;23;20402;-88
2021/12/26 04:58:42;;;;;;;15.90;2.93;;;;;;;13.50;100.00;101186.78;6077554;23;20387;-88
2021/12/26 05:01:10;;;;;;;13.67;2.83;;;;;;;13.46;100.00;101180.03;6100499;23;20438;-89
2021/12/26 05:03:39;;;;;;;12.97;3.20;;;;;;;13.48;100.00;101194.38;6076851;23;20417;-89
2021/12/26 05:06:07;;;;;;;14.77;2.73;;;;;;;13.47;100.00;101195.44;6076962;23;20414;-88
2021/12/26 05:08:35;;;;;;;18.93;3.43;;;;;;;13.51;100.00;101193.97;6076405;23;20402;-89
2021/12/26 05:11:03;;;;;;;13.83;4.17;;;;;;;13.55;100.00;101211.75;6077478;23;20414;-89
2021/12/26 05:13:32;;;;;;;14.70;2.63;;;;;;;13.52;100.00;101190.19;6101260;23;20461;-89
2021/12/26 05:16:00;;;;;;;12.37;3.13;;;;;;;13.57;100.00;101203.31;6123569;23;20453;-89
2021/12/26 05:18:28;;;;;;;12.87;3.00;;;;;;;13.59;100.00;101198.47;6052797;23;20433;-89
2021/12/26 05:20:56;;;;;;;12.90;4.50;;;;;;;13.59;100.00;101193.84;6106025;23;20852;-90
2021/12/26 05:23:24;;;;;;;10.37;2.30;;;;;;;13.60;100.00;101187.28;6105453;23;20409;-89
2021/12/26 05:25:52;;;;;;;8.57;2.70;;;;;;;13.59;100.00;101179.25;6082191;23;20416;-89
2021/12/26 05:28:20;;;;;;;13.67;3.67;;;;;;;13.61;100.00;101186.25;6105911;23;20785;-89
2021/12/26 05:30:48;;;;;;;22.60;2.80;;;;;;;13.60;100.00;101181.81;6105022;23;20413;-90
2021/12/26 05:33:16;;;;;;;15.50;3.50;;;;;;;13.61;100.00;101177.16;6105589;23;20785;-89
2021/12/26 05:35:43;;;;;;;14.07;3.50;;;;;;;13.59;100.00;101180.09;6082206;23;20408;-88
2021/12/26 05:38:11;;;;;;;15.53;3.20;;;;;;;13.66;100.00;101191.94;6105573;23;20410;-89
2021/12/26 05:40:39;;;;;;;10.83;2.70;;;;;;;13.67;100.00;101190.91;6105446;23;20444;-89
2021/12/26 05:43:07;;;;;;;11.07;3.07;;;;;;;13.66;100.00;101191.94;6082688;23;20452;-88
2021/12/26 05:45:35;;;;;;;16.37;3.60;;;;;;;13.66;100.00;101197.44;6105782;23;20468;-88
2021/12/26 05:48:03;;;;;;;14.30;3.63;;;;;;;13.69;100.00;101196.19;6105307;23;20920;-89
2021/12/26 05:50:31;;;;;;;11.73;2.90;;;;;;;13.67;100.00;101207.38;6106027;23;20892;-89
2021/12/26 05:53:01;;;;;;;20.90;3.33;;;;;;;13.68;100.00;101200.00;6082084;23;20401;-88
2021/12/26 05:55:29;;;;;;;11.07;2.90;;;;;;;13.74;100.00;101216.53;6154192;23;20429;-89
2021/12/26 05:57:57;;;;;;;13.77;3.13;;;;;;;13.72;100.00;101204.03;6105384;23;20410;-88
2021/12/26 06:00:24;;;;;;;9.27;2.83;;;;;;;13.74;100.00;101210.19;6107127;23;20437;-88
2021/12/26 06:02:54;;;;;;;11.30;2.87;;;;;;;13.72;100.00;101213.13;6131483;23;20402;-88
2021/12/26 06:05:22;;;;;;;22.77;4.07;;;;;;;13.75;100.00;101212.72;6083879;23;20429;-89
2021/12/26 06:07:50;;;;;;;13.73;4.73;;;;;;;13.73;100.00;101214.81;6083426;23;20470;-89
2021/12/26 06:10:18;;;;;;;15.73;5.00;;;;;;;13.76;100.00;101214.41;6107450;23;20904;-88
2021/12/26 06:12:47;;;;;;;9.00;3.60;;;;;;;13.75;100.00;101207.22;6107183;23;20410;-88
2021/12/26 06:15:15;;;;;;;10.30;3.20;;;;;;;13.76;100.00;101197.94;6131374;23;20926;-88
2021/12/26 06:17:43;;;;;;;12.50;4.30;;;;;;;13.77;100.00;101193.28;6083664;23;20788;-90
2021/12/26 06:20:15;;;;;;;17.20;6.07;;;;;;;13.78;100.00;101200.47;6131372;23;20416;-88
2021/12/26 06:22:44;;;;;;;18.73;4.00;;;;;;;13.77;100.00;101187.78;6108325;23;20437;-88
2021/12/26 06:25:14;;;;;;;22.63;7.27;;;;;;;13.79;100.00;101188.44;6108081;23;20409;-88
2021/12/26 06:27:42;;;;;;;16.23;8.00;;;;;;;13.79;100.00;101194.78;6157705;23;20414;-89
2021/12/26 06:30:10;;;;;;;21.30;6.33;;;;;;;13.80;100.00;101206.63;6107277;23;20402;-88
2021/12/26 06:32:38;;;;;;;16.40;4.67;;;;;;;13.82;100.00;101204.53;6107025;23;20717;-89
2021/12/26 06:35:08;;;;;;;15.40;6.13;;;;;;;13.80;100.00;101215.72;6107418;23;20472;-89
2021/12/26 06:37:37;;;;;;;17.40;3.30;;;;;;;13.82;100.00;101213.63;6108266;23;20409;-89
2021/12/26 06:40:06;;;;;;;21.63;4.43;;;;;;;13.75;100.00;101203.63;6131324;23;20409;-88
2021/12/26 06:42:40;;;;;;;12.67;3.10;;;;;;;13.86;100.00;101215.94;6107328;23;20787;-88
2021/12/26 06:45:15;;;;;;;13.47;3.90;;;;;;;13.86;100.00;101218.69;6109852;23;20448;-89
2021/12/26 06:47:49;;;;;;;15.40;4.00;;;;;;;13.87;100.00;101226.72;6108356;23;20726;-90
2021/12/26 06:50:18;;;;;;;16.67;4.00;;;;;;;13.90;100.00;101228.22;6108952;23;20421;-89
2021/12/26 06:52:46;;;;;;;11.67;2.90;;;;;;;13.88;100.00;101227.56;6106902;23;20784;-88
2021/12/26 06:55:14;;;;;;;19.53;4.57;;;;;;;13.91;100.00;101233.50;6106967;23;20401;-88
2021/12/26 06:57:43;;;;;;;12.83;3.47;;;;;;;13.94;100.00;101232.25;6107787;23;20892;-88
2021/12/26 07:00:13;;;;;;;13.80;3.27;;;;;;;13.95;100.00;101229.31;6084005;23;20785;-89
2021/12/26 07:02:42;;;;;;;13.23;3.60;;;;;;;13.96;100.00;101235.66;6083691;23;20869;-89
2021/12/26 07:05:14;;;;;;;13.17;3.43;;;;;;;13.97;100.00;101234.59;6108066;23;20485;-89
2021/12/26 07:07:42;;;;;;;19.10;4.20;;;;;;;13.99;100.00;101232.50;6108412;23;20406;-88
2021/12/26 07:10:10;;;;;;;14.57;4.07;;;;;;;14.03;100.00;101240.16;6106267;23;20408;-88
2021/12/26 07:12:38;;;;;;;13.57;3.53;;;;;;;14.01;100.00;101231.25;6106951;23;20398;-89
2021/12/26 07:15:07;;;;;;;13.03;2.50;;;;;;;14.02;100.00;101221.97;6083228;23;20402;-89
2021/12/26 07:17:35;;;;;;;16.63;4.00;;;;;;;14.02;100.00;101221.09;6105287;23;20460;-89
2021/12/26 07:20:03;;;;;;;16.67;6.97;;;;;;;14.06;100.00;101225.13;6106808;23;20408;-89
2021/12/26 07:22:31;;;;;;;15.13;4.97;;;;;;;14.06;100.00;101228.72;6106345;23;20503;-87
2021/12/26 07:25:00;;;;;;;25.03;5.27;;;;;;;14.07;100.00;101240.56;6106619;23;20405;-89
2021/12/26 07:27:29;;;;;;;23.10;6.60;;;;;;;14.05;100.00;101226.16;6130614;23;20405;-89
2021/12/26 07:29:58;;;;;;;18.23;5.70;;;;;;;14.07;100.00;101232.31;6130243;23;20402;-88
2021/12/26 07:32:27;;;;;;;28.23;6.50;;;;;;;14.08;100.00;101236.75;6107780;23;20430;-88
2021/12/26 07:34:58;;;;;;;17.47;5.40;;;;;;;14.11;100.00;101236.34;6131488;23;20731;-89
2021/12/26 07:37:26;;;;;;;20.87;5.90;;;;;;;14.12;100.00;101243.56;6106526;23;20393;-90
2021/12/26 07:39:54;;;;;;;20.33;6.73;;;;;;;14.13;100.00;101243.34;6107096;23;20464;-90
2021/12/26 07:42:22;;;;;;;23.73;9.37;;;;;;;14.07;100.00;101221.31;6106882;23;20480;-89
2021/12/26 07:44:51;;;;;;;21.00;7.23;;;;;;;14.16;100.00;101237.44;6082935;23;20409;-90
2021/12/26 07:47:20;;;;;;;23.50;7.13;;;;;;;14.14;100.00;101236.78;6130435;23;20407;-90
2021/12/26 07:49:47;;;;;;;31.43;10.33;;;;;;;14.13;100.00;101242.50;6131737;23;20412;-89
2021/12/26 07:52:19;;;;;;;31.40;13.50;;;;;;;14.15;100.00;101252.25;6107421;23;20436;-89
2021/12/26 07:54:47;;;;;;;40.73;14.47;;;;;;;14.17;100.00;101250.13;6084145;23;20424;-90
2021/12/26 07:57:14;;;;;;;38.50;12.60;;;;;;;14.20;100.00;101257.13;6082208;23;20406;-89
2021/12/26 07:59:42;;;;;;;24.37;8.80;;;;;;;14.20;100.00;101254.38;6106304;23;20401;-90
2021/12/26 08:02:10;;;;;;;20.20;6.70;;;;;;;14.14;100.00;101236.78;6082130;23;20452;-89
2021/12/26 08:04:39;;;;;;;27.60;9.13;;;;;;;14.17;100.00;101244.63;6106337;23;20408;-89
2021/12/26 08:07:06;;;;;;;31.83;12.63;;;;;;;14.26;100.00;101244.44;6154483;23;20401;-90
2021/12/26 08:09:34;;;;;;;34.03;12.00;;;;;;;14.25;100.00;101249.09;6105772;23;20785;-89
2021/12/26 08:12:03;;;;;;;23.03;8.50;;;;;;;14.28;100.00;101245.09;6106836;23;20461;-90
2021/12/26 08:14:33;;;;;;;20.63;7.83;;;;;;;14.31;100.00;101253.78;6106790;23;20413;-90
2021/12/26 08:17:01;;;;;;;24.17;10.03;;;;;;;14.34;100.00;101258.88;6082923;23;20408;-89
2021/12/26 08:19:30;;;;;;;28.00;7.67;;;;;;;14.34;100.00;101264.38;6106549;23;20402;-89
2021/12/26 08:21:58;;;;;;;21.47;6.30;;;;;;;14.38;100.00;101262.91;6142039;23;20448;-89
2021/12/26 08:24:26;;;;;;;13.30;5.37;;;;;;;14.36;100.00;101259.50;6130288;23;20409;-90
2021/12/26 08:26:57;;;;;;;20.57;4.40;;;;;;;14.33;100.00;101246.19;6082706;23;20431;-90
2021/12/26 08:29:27;;;;;;;12.20;4.00;;;;;;;14.49;100.00;101270.59;6130442;23;20908;-90
2021/12/26 08:31:59;;;;;;;14.60;2.97;;;;;;;14.48;100.00;101257.88;6153746;23;20920;-89
2021/12/26 08:34:29;;;;;;;11.60;3.00;;;;;;;14.53;100.00;101262.78;6130368;23;20440;-89
2021/12/26 08:37:03;;;;;;;10.70;3.27;;;;;;;14.56;100.00;101256.00;6107791;23;20773;-90
2021/12/26 08:39:33;;;;;;;12.90;5.70;;;;;;;14.67;100.00;101267.25;6130736;23;20440;-90
2021/12/26 08:42:01;;;;;;;19.03;7.60;;;;;;;14.71;100.00;101278.69;6129639;23;20460;-90
2021/12/26 08:44:33;;;;;;;20.13;7.50;;;;;;;14.80;100.00;101283.81;6131307;23;20393;-90
2021/12/26 08:47:01;;;;;;;8.03;3.47;;;;;;;14.89;100.00;101267.94;6130468;23;21000;-90
2021/12/26 08:49:31;;;;;;;18.50;7.33;;;;;;;15.05;100.00;101289.53;6129744;23;20398;-90
2021/12/26 08:52:02;;;;;;;25.20;12.07;;;;;;;15.23;100.00;101290.81;6131498;23;20412;-90
2021/12/26 08:54:33;;;;;;;10.13;4.00;;;;;;;15.25;100.00;101283.19;6155406;23;20410;-89
2021/12/26 08:57:05;;;;;;;11.30;2.83;;;;;;;15.31;100.00;101285.13;6130373;23;20409;-89
2021/12/26 08:59:35;;;;;;;8.70;2.93;;;;;;;15.48;100.00;101291.91;6130345;23;20522;-90
2021/12/26 09:02:04;;;;;;;10.47;2.90;;;;;;;15.52;100.00;101290.41;6130079;23;20958;-89
2021/12/26 09:04:32;;;;;;;10.90;2.00;;;;;;;15.69;100.00;101305.47;6129386;23;20901;-89
2021/12/26 09:07:00;;;;;;;10.10;3.83;;;;;;;15.78;100.00;101315.22;6129554;23;20908;-90
2021/12/26 09:09:29;;;;;;;11.70;2.03;;;;;;;15.81;100.00;101312.03;6130410;23;20873;-90
2021/12/26 09:11:59;;;;;;;13.57;2.00;;;;;;;15.89;100.00;101311.81;6130168;23;20919;-89
2021/12/26 09:14:32;;;;;;;8.50;2.93;;;;;;;15.89;100.00;101300.78;6153979;23;20416;-89
2021/12/26 09:17:00;;;;;;;7.40;2.03;;;;;;;15.95;100.00;101310.13;6129082;23;20402;-87
2021/12/26 09:19:28;;;;;;;14.00;2.17;;;;;;;15.97;100.00;101312.66;6129030;23;20409;-89
2021/12/26 09:21:57;;;;;;;17.67;7.53;;;;;;;16.07;100.00;101324.06;6129951;23;20457;-90
2021/12/26 09:24:28;;;;;;;17.23;4.60;;;;;;;16.06;100.00;101312.19;6129793;23;20440;-90
2021/12/26 09:26:56;;;;;;;14.70;4.90;;;;;;;16.11;100.00;101322.59;6129247;23;20401;-90
2021/12/26 09:29:24;;;;;;;18.17;5.53;;;;;;;16.21;100.00;101331.25;6129310;23;20416;-90
2021/12/26 09:31:53;;;;;;;13.33;4.40;;;;;;;16.16;100.00;101317.28;6129655;23;20417;-90
2021/12/26 09:34:24;;;;;;;10.80;4.97;;;;;;;16.23;100.00;101329.13;6130881;23;20751;-90
2021/12/26 09:36:57;;;;;;;9.67;2.73;;;;;;;16.26;100.00;101328.69;6131272;23;20401;-88
2021/12/26 09:39:25;;;;;;;7.37;1.67;;;;;;;16.31;100.00;101337.16;6155707;23;20409;-92
2021/12/26 09:41:56;;;;;;;11.93;2.40;;;;;;;16.39;100.00;101338.81;6108568;23;20927;-91
2021/12/26 09:44:32;;;;;;;10.87;2.23;;;;;;;16.40;100.00;101338.59;6132170;23;20396;-91
2021/12/26 09:47:00;;;;;;;10.27;5.20;;;;;;;16.53;100.00;101341.34;6156414;23;20412;-89
2021/12/26 09:49:28;;;;;;;5.73;2.40;;;;;;;16.57;100.00;101325.16;6106486;23;20402;-91
2021/12/26 09:51:57;;;;;;;11.17;1.60;;;;;;;16.66;100.00;101334.09;6106895;23;20419;-90
2021/12/26 09:54:28;;;;;;;8.30;1.53;;;;;;;16.78;100.00;101343.34;6107336;23;20409;-90
2021/12/26 09:57:06;;;;;;;6.57;1.20;;;;;;;16.83;100.00;101346.31;6132731;23;20390;-90
2021/12/26 09:59:33;;;;;;;5.27;1.13;;;;;;;16.80;100.00;101341.22;6131605;23;20500;-90
2021/12/26 10:02:11;;;;;;;4.60;0.73;;;;;;;16.96;100.00;101354.50;6106803;23;20448;-90
2021/12/26 10:04:51;;;;;;;4.20;0.90;;;;;;;16.89;100.00;101340.78;6132866;23;20495;-89
2021/12/26 10:07:27;;;;;;;7.93;1.70;;;;;;;17.07;100.00;101372.31;6155805;23;20740;-89
2021/12/26 10:09:59;;;;;;;6.80;1.30;;;;;;;17.12;100.00;101367.00;6131884;23;20409;-90
2021/12/26 10:12:28;;;;;;;7.10;1.30;;;;;;;17.04;100.00;101348.75;6131777;23;20424;-90
2021/12/26 10:14:57;;;;;;;14.20;1.60;;;;;;;17.21;100.00;101360.13;6131459;23;20433;-90
2021/12/26 10:17:31;;;;;;;11.20;1.30;;;;;;;17.33;100.00;101350.03;6131987;23;20516;-90
2021/12/26 10:20:09;;;;;;;7.13;1.70;;;;;;;17.40;100.00;101331.50;6132715;23;20405;-90
2021/12/26 10:22:39;;;;;;;5.30;1.57;;;;;;;17.58;100.00;101347.28;6131349;23;20449;-90
2021/12/26 10:25:09;;;;;;;14.60;1.53;;;;;;;17.69;100.00;101341.09;6131461;23;20402;-90
2021/12/26 10:27:41;;;;;;;12.33;1.73;;;;;;;17.79;100.00;101335.03;6131925;23;20424;-90
2021/12/26 10:30:17;;;;;;;10.83;2.47;;;;;;;17.96;100.00;101355.50;6132942;23;20410;-90
2021/12/26 10:32:45;;;;;;;9.13;1.47;;;;;;;17.97;100.00;101332.28;6132094;23;20792;-90
2021/12/26 10:35:15;;;;;;;23.03;3.57;;;;;;;18.09;100.00;101333.22;6108118;23;20408;-88
2021/12/26 10:38:14;;;;;;;18.10;2.70;;;;;;;18.18;100.00;101328.25;6155344;23;20441;-88
2021/12/26 10:40:55;;;;;;;15.37;3.63;;;;;;;18.20;100.00;101313.09;6150628;23;20428;-88
2021/12/26 10:55:29;;;;;;;;;;;;;;;;;;;;;
2021/12/26 10:58:45;;;;;;;8.20;1.93;;;;;;;18.82;100.00;101318.53;6095567;23;20374;-88
2021/12/26 11:02:17;;;;;;;10.80;2.80;;;;;;;18.82;100.00;101335.16;6008892;23;20822;-88
2021/12/26 11:06:22;;;;;;;11.13;1.60;;;;;;;18.93;100.00;101348.19;5858490;24;20737;-87
2021/12/26 11:09:55;;;;;;;10.40;2.20;;;;;;;18.86;100.00;101326.13;5892929;24;20513;-88
2021/12/26 11:19:41;;;;;;;10.40;1.90;;;;;;;18.80;100.00;101342.84;5889280;24;20400;-88
2021/12/26 11:22:10;;;;;;;12.77;1.90;;;;;;;18.73;100.00;101336.53;5897913;24;20452;-88
2021/12/26 11:24:41;;;;;;;12.47;2.80;;;;;;;18.84;100.00;101333.00;5876533;24;20394;-88
2021/12/26 11:27:32;;;;;;;9.83;1.37;;;;;;;18.82;100.00;101343.47;5880791;24;20405;-90
2021/12/26 11:30:37;;;;;;;6.73;1.50;;;;;;;18.85;100.00;101351.31;5855505;24;20788;-93
2021/12/26 11:33:08;;;;;;;7.93;1.30;;;;;;;18.75;100.00;101346.31;5930478;24;20400;-87
2021/12/26 11:35:37;;;;;;;3.87;1.00;;;;;;;18.71;100.00;101339.53;6009638;23;20412;-85
2021/12/26 11:38:19;;;;;;;5.27;1.47;;;;;;;18.70;100.00;101342.53;6072826;23;20408;-86
2021/12/26 11:40:47;;;;;;;8.87;2.30;;;;;;;18.76;100.00;101341.63;6130431;23;20916;-87
2021/12/26 11:47:58;;;;;;;9.07;1.90;;;;;;;18.83;100.00;101334.09;6157041;23;20735;-89
2021/12/26 11:51:19;;;;;;;5.50;1.60;;;;;;;18.87;100.00;101338.03;6154198;23;20909;-88
2021/12/26 11:54:02;;;;;;;15.97;2.43;;;;;;;18.93;100.00;101337.97;6137782;23;20988;-85
2021/12/26 11:56:55;;;;;;;8.43;2.30;;;;;;;18.89;100.00;101325.66;6129372;23;20970;-88
2021/12/26 12:00:27;;;;;;;13.13;2.03;;;;;;;18.94;100.00;101333.28;6143467;23;20472;-89